This is the latest recevied weather packets stored in our database for station/object YG1CIC-13. If no packets are shown the sender has not sent any weather packets the latest 10 day(s).
| Time | Temp. | Humidity | Pressure | Rain* | Wind** | Luminosity | Snow |
|---|---|---|---|---|---|---|---|
| 1777005519 | 36.67° C | 59% | - | 0 mm | - | - | - |
| 1777004918 | 35.56° C | 62% | - | 0 mm | - | - | - |
| 1777004317 | 35.56° C | 62% | - | 0 mm | - | - | - |
| 1777003717 | 35.56° C | 63% | - | 0 mm | - | - | - |
| 1777003116 | 35° C | 64% | - | 0 mm | - | - | - |
| 1777002516 | 34.44° C | 65% | - | 0 mm | - | - | - |
| 1777001915 | 33.33° C | 66% | - | 0 mm | - | - | - |
| 1777001314 | 34.44° C | 65% | - | 0 mm | - | - | - |
| 1777000714 | 36.11° C | 61% | - | 0 mm | - | - | - |
| 1777000113 | 36.67° C | 58% | - | 0 mm | - | - | - |
| 1776999512 | 36.67° C | 58% | - | 0 mm | - | - | - |
| 1776998912 | 38.33° C | 55% | - | 0 mm | - | - | - |
| 1776998311 | 38.33° C | 54% | - | 0 mm | - | - | - |
| 1776997710 | 38.33° C | 53% | - | 0 mm | - | - | - |
| 1776997110 | 36.67° C | 59% | - | 0 mm | - | - | - |
| 1776996509 | 41.67° C | 49% | - | 0 mm | - | - | - |
| 1776995909 | 40.56° C | 50% | - | 0 mm | - | - | - |
| 1776995308 | 41.67° C | 50% | - | 0 mm | - | - | - |
| 1776994707 | 42.22° C | 49% | - | 0 mm | - | - | - |
| 1776994107 | 40.56° C | 52% | - | 0 mm | - | - | - |
| 1776993506 | 41.67° C | 50% | - | 0 mm | - | - | - |
| 1776992906 | 42.78° C | 50% | - | 0 mm | - | - | - |
| 1776992305 | 40° C | 55% | - | 0 mm | - | - | - |
| 1776991704 | 40° C | 55% | - | 0 mm | - | - | - |
| 1776991104 | 39.44° C | 56% | - | 0 mm | - | - | - |
* Rain latest hour (hover to see other rain measurements)
** Current wind speed in m/s (hover to see current wind gust speed)